createdAt,value
2023-08-29T10:02:01.548Z,2.50
2023-08-29T10:03:01.599Z,3.50
2023-08-29T10:04:01.449Z,1.80
2023-08-29T10:05:01.428Z,2.50
2023-08-29T10:06:01.437Z,2.50
2023-08-29T10:07:01.420Z,2.50
2023-08-29T10:08:01.388Z,2.80
2023-08-29T10:09:01.377Z,2.90
2023-08-29T10:10:01.377Z,2.60
2023-08-29T10:11:01.365Z,2.10
2023-08-29T10:12:01.353Z,2.20
2023-08-29T10:13:01.322Z,2.30
2023-08-29T10:14:01.341Z,2.30
2023-08-29T10:15:01.299Z,2.00
2023-08-29T10:16:01.292Z,1.80
2023-08-29T10:17:03.099Z,2.10
2023-08-29T10:18:01.292Z,2.20
2023-08-29T10:19:01.245Z,2.00
2023-08-29T10:20:01.262Z,2.50
2023-08-29T10:21:03.661Z,2.80
2023-08-29T10:22:01.222Z,2.30
2023-08-29T10:23:01.185Z,2.30
2023-08-29T10:24:01.179Z,2.10
2023-08-29T10:25:01.170Z,2.40
2023-08-29T10:26:01.167Z,2.80
2023-08-29T10:27:01.139Z,2.70
2023-08-29T10:28:01.157Z,2.70
2023-08-29T10:29:01.112Z,2.30
2023-08-29T10:30:01.117Z,2.20
2023-08-29T10:31:01.175Z,2.60
2023-08-29T10:32:01.084Z,3.00
2023-08-29T10:33:01.117Z,2.70
2023-08-29T10:34:01.055Z,2.60
2023-08-29T10:35:01.050Z,3.10
2023-08-29T10:36:01.037Z,3.10
2023-08-29T10:37:01.036Z,4.00
2023-08-29T10:38:01.006Z,3.20
2023-08-29T10:39:00.980Z,2.80
2023-08-29T10:40:00.978Z,3.00
2023-08-29T10:41:00.949Z,2.50
2023-08-29T10:42:00.955Z,2.30
2023-08-29T10:43:00.923Z,2.10
2023-08-29T10:44:00.932Z,2.00
2023-08-29T10:45:00.910Z,2.00
2023-08-29T10:46:00.911Z,2.40
2023-08-29T10:47:00.885Z,2.10
2023-08-29T10:48:00.889Z,2.20
2023-08-29T10:49:00.857Z,2.30
2023-08-29T10:50:00.903Z,2.30
2023-08-29T10:51:00.825Z,2.20
2023-08-29T10:52:00.814Z,1.90
2023-08-29T10:53:00.791Z,2.30
2023-08-29T10:54:00.799Z,2.30
2023-08-29T10:55:00.768Z,2.60
2023-08-29T10:56:00.762Z,3.10
2023-08-29T10:57:00.796Z,2.90
2023-08-29T10:58:00.733Z,2.80
2023-08-29T10:59:00.731Z,2.70
2023-08-29T11:00:00.704Z,2.20
2023-08-29T11:01:00.734Z,2.30
2023-08-29T11:02:07.757Z,2.40
2023-08-29T11:03:00.706Z,2.10
2023-08-29T11:04:00.730Z,2.10
2023-08-29T11:05:00.675Z,2.20
2023-08-29T11:06:00.713Z,1.90
2023-08-29T11:07:00.637Z,1.70
2023-08-29T11:08:00.636Z,2.00
2023-08-29T11:09:00.587Z,2.20
2023-08-29T11:10:00.581Z,1.90
2023-08-29T11:11:00.557Z,1.90
2023-08-29T11:12:00.548Z,2.40
2023-08-29T11:13:00.539Z,1.70
2023-08-29T11:14:00.527Z,1.60
2023-08-29T11:15:00.518Z,1.80
2023-08-29T11:16:00.498Z,1.60
2023-08-29T11:17:00.484Z,1.50
2023-08-29T11:18:00.539Z,1.40
2023-08-29T11:19:00.450Z,1.30
2023-08-29T11:20:00.444Z,1.30
2023-08-29T11:21:00.425Z,1.40
2023-08-29T11:22:00.429Z,1.20
2023-08-29T11:23:00.404Z,1.10
2023-08-29T11:24:15.060Z,1.10
2023-08-29T11:25:01.389Z,1.10
2023-08-29T11:26:00.381Z,1.10
2023-08-29T11:27:00.366Z,1.00
2023-08-29T11:28:00.340Z,1.00
2023-08-29T11:29:00.331Z,0.90
2023-08-29T11:30:16.540Z,1.20
2023-08-29T11:31:01.327Z,1.20
2023-08-29T11:32:00.282Z,0.90
2023-08-29T11:33:00.296Z,1.10
2023-08-29T11:34:00.257Z,0.90
2023-08-29T11:35:00.249Z,0.90
2023-08-29T11:36:00.244Z,1.00
2023-08-29T11:37:00.220Z,1.10
2023-08-29T11:38:00.204Z,0.90
2023-08-29T11:39:00.191Z,1.10
2023-08-29T11:40:00.204Z,1.00
2023-08-29T11:41:17.202Z,0.90
2023-08-29T11:42:11.598Z,1.30
2023-08-29T11:43:30.975Z,1.30
2023-08-29T11:44:49.635Z,1.30
2023-08-29T11:45:26.314Z,1.10
2023-08-29T11:46:01.236Z,1.40
2023-08-29T11:47:00.086Z,1.20
2023-08-29T11:48:00.098Z,1.20
2023-08-29T11:49:00.070Z,1.20
2023-08-29T11:50:00.078Z,1.30
2023-08-29T11:51:00.036Z,1.10
2023-08-29T11:52:00.041Z,1.40
2023-08-29T11:53:00.013Z,1.40
2023-08-29T11:53:59.992Z,1.20
2023-08-29T11:54:59.994Z,1.20
2023-08-29T11:55:59.960Z,1.10
2023-08-29T11:56:59.952Z,1.20
2023-08-29T11:57:59.949Z,0.90
2023-08-29T11:58:59.938Z,1.70
2023-08-29T11:59:59.916Z,0.90
2023-08-29T12:00:59.906Z,1.10
2023-08-29T12:01:59.902Z,1.20
2023-08-29T12:02:59.897Z,1.20
2023-08-29T12:03:59.882Z,1.10
2023-08-29T12:04:59.851Z,1.10
2023-08-29T12:05:59.843Z,1.10
2023-08-29T12:06:59.818Z,1.40
2023-08-29T12:07:59.800Z,1.20
2023-08-29T12:09:01.132Z,1.20
2023-08-29T12:09:59.778Z,1.10
2023-08-29T12:10:59.773Z,1.20
2023-08-29T12:11:59.748Z,1.10
2023-08-29T12:12:59.757Z,1.00
2023-08-29T12:13:59.735Z,1.10
2023-08-29T12:14:59.759Z,1.00
2023-08-29T12:15:59.705Z,1.00
2023-08-29T12:16:59.697Z,0.90
2023-08-29T12:17:59.746Z,1.10
2023-08-29T12:18:59.670Z,0.90
2023-08-29T12:19:59.645Z,0.90
2023-08-29T12:21:01.064Z,0.90
2023-08-29T12:21:59.627Z,1.00
2023-08-29T12:22:59.628Z,1.00
2023-08-29T12:23:59.594Z,0.80
2023-08-29T12:24:59.751Z,0.80
2023-08-29T12:25:59.571Z,0.90
2023-08-29T12:26:59.573Z,0.90
2023-08-29T12:27:59.560Z,0.90
2023-08-29T12:28:59.539Z,0.80
2023-08-29T12:29:59.514Z,0.90
2023-08-29T12:30:59.605Z,1.20
2023-08-29T12:31:59.508Z,1.10
2023-08-29T12:32:59.536Z,1.00
2023-08-29T12:33:59.467Z,1.00
2023-08-29T12:34:59.459Z,1.00
2023-08-29T12:35:59.449Z,0.90
2023-08-29T12:36:59.447Z,1.40
2023-08-29T12:37:59.423Z,1.10
2023-08-29T12:38:59.400Z,0.90
2023-08-29T12:39:59.385Z,0.90
2023-08-29T12:40:59.400Z,0.90
2023-08-29T12:41:59.363Z,0.90
2023-08-29T12:42:59.346Z,0.90
2023-08-29T12:43:59.331Z,0.80
2023-08-29T12:44:59.885Z,0.90
2023-08-29T12:46:00.609Z,1.70
2023-08-29T12:46:59.297Z,0.60
2023-08-29T12:47:59.329Z,0.90
2023-08-29T12:48:59.276Z,1.00
2023-08-29T12:49:59.261Z,0.70
2023-08-29T12:50:59.258Z,0.90
2023-08-29T12:51:59.236Z,0.80
2023-08-29T12:52:59.222Z,0.90
2023-08-29T12:53:59.205Z,0.70
2023-08-29T12:54:59.206Z,0.90
2023-08-29T12:55:59.183Z,0.90
2023-08-29T12:56:59.180Z,0.90
2023-08-29T12:57:59.150Z,0.80
2023-08-29T12:58:59.138Z,1.00
2023-08-29T12:59:59.142Z,1.00
2023-08-29T13:00:59.126Z,0.90
2023-08-29T13:01:59.156Z,0.80
2023-08-29T13:02:59.148Z,0.70
2023-08-29T13:03:59.068Z,0.90
2023-08-29T13:04:59.071Z,1.00
2023-08-29T13:05:59.046Z,0.80
2023-08-29T13:06:59.034Z,0.90
2023-08-29T13:07:59.017Z,0.70
2023-08-29T13:08:59.023Z,0.70
2023-08-29T13:09:59.005Z,0.70
2023-08-29T13:10:58.983Z,0.80
2023-08-29T13:11:58.963Z,0.70
2023-08-29T13:12:58.973Z,0.70
2023-08-29T13:13:58.949Z,0.90
2023-08-29T13:14:58.925Z,0.90
2023-08-29T13:15:58.981Z,1.40
2023-08-29T13:16:58.910Z,0.80
2023-08-29T13:17:58.910Z,0.80
2023-08-29T13:18:58.890Z,0.80
2023-08-29T13:19:58.859Z,0.80
2023-08-29T13:20:58.852Z,0.70
2023-08-29T13:21:58.850Z,0.80
2023-08-29T13:22:58.833Z,0.70
2023-08-29T13:23:58.810Z,0.60
2023-08-29T13:24:58.794Z,0.70
2023-08-29T13:25:58.782Z,0.70
2023-08-29T13:26:58.783Z,0.70
2023-08-29T13:27:58.760Z,0.50
2023-08-29T13:28:58.769Z,0.70
2023-08-29T13:29:58.728Z,0.70
2023-08-29T13:30:58.719Z,0.80
2023-08-29T13:31:58.726Z,0.70
2023-08-29T13:32:58.755Z,0.70
2023-08-29T13:33:58.681Z,0.90
2023-08-29T13:34:58.668Z,0.60
2023-08-29T13:35:58.660Z,0.70
2023-08-29T13:36:58.673Z,0.70
2023-08-29T13:37:58.631Z,0.60
2023-08-29T13:38:58.610Z,0.60
2023-08-29T13:39:58.596Z,0.50
2023-08-29T13:40:58.584Z,0.70
2023-08-29T13:41:58.580Z,0.80
2023-08-29T13:42:58.563Z,0.80
2023-08-29T13:43:58.542Z,0.70
2023-08-29T13:44:58.532Z,0.70
2023-08-29T13:45:58.559Z,0.70
2023-08-29T13:46:58.547Z,0.70
2023-08-29T13:47:58.569Z,0.70
2023-08-29T13:48:58.502Z,0.70
2023-08-29T13:49:58.465Z,0.80
2023-08-29T13:50:58.465Z,0.90
2023-08-29T13:52:00.850Z,0.70
2023-08-29T13:52:58.425Z,0.70
2023-08-29T13:53:58.423Z,0.60
2023-08-29T13:54:58.454Z,0.80
2023-08-29T13:55:58.397Z,0.70
2023-08-29T13:56:58.378Z,0.60
2023-08-29T13:57:58.357Z,0.70
2023-08-29T13:58:58.354Z,0.80
2023-08-29T13:59:58.342Z,1.00
2023-08-29T14:00:58.370Z,0.80
2023-08-29T14:01:58.308Z,0.70
2023-08-29T14:02:58.375Z,0.70
2023-08-29T14:03:58.316Z,0.70
2023-08-29T14:04:58.289Z,0.80
2023-08-29T14:05:58.261Z,0.70
2023-08-29T14:06:58.243Z,0.80
2023-08-29T14:07:58.230Z,0.80
2023-08-29T14:08:58.218Z,0.80
2023-08-29T14:09:58.220Z,0.70
2023-08-29T14:10:58.188Z,0.90
2023-08-29T14:11:58.177Z,0.70
2023-08-29T14:12:58.172Z,0.80
2023-08-29T14:13:58.158Z,0.80
2023-08-29T14:14:58.150Z,0.80
2023-08-29T14:15:58.192Z,0.80
2023-08-29T14:16:58.110Z,0.80
2023-08-29T14:17:58.129Z,0.90
2023-08-29T14:18:58.094Z,0.80
2023-08-29T14:19:58.242Z,0.80
2023-08-29T14:20:58.058Z,0.70
2023-08-29T14:21:58.057Z,0.70
2023-08-29T14:22:58.034Z,0.80
2023-08-29T14:23:58.044Z,0.70
2023-08-29T14:24:58.007Z,0.80
2023-08-29T14:25:58.146Z,0.70
2023-08-29T14:26:57.989Z,0.90
2023-08-29T14:27:57.987Z,0.80
2023-08-29T14:28:57.971Z,1.00
2023-08-29T14:29:57.953Z,0.70
2023-08-29T14:30:57.968Z,0.80
2023-08-29T14:31:57.925Z,0.80
2023-08-29T14:32:57.946Z,0.80
2023-08-29T14:33:57.890Z,0.90
2023-08-29T14:34:57.870Z,1.00
2023-08-29T14:35:57.881Z,0.80
2023-08-29T14:36:57.843Z,0.80
2023-08-29T14:37:57.854Z,0.70
2023-08-29T14:39:00.440Z,0.60
2023-08-29T14:39:57.822Z,0.80
2023-08-29T14:40:57.799Z,0.80
2023-08-29T14:41:57.839Z,0.90
2023-08-29T14:42:57.781Z,0.80
2023-08-29T14:43:57.766Z,1.00
2023-08-29T14:44:57.739Z,0.60
2023-08-29T14:45:57.729Z,0.90
2023-08-29T14:46:57.786Z,0.90
2023-08-29T14:47:57.739Z,0.80
2023-08-29T14:48:57.692Z,0.70
2023-08-29T14:49:57.691Z,0.90
2023-08-29T14:50:57.660Z,0.90
2023-08-29T14:51:57.678Z,0.80
2023-08-29T14:52:57.636Z,0.80
2023-08-29T14:53:57.631Z,0.90
2023-08-29T14:54:57.612Z,0.80
2023-08-29T14:55:57.610Z,0.80
2023-08-29T14:56:57.591Z,0.80
2023-08-29T14:57:57.594Z,0.90
2023-08-29T14:58:57.559Z,0.90
2023-08-29T14:59:57.549Z,0.90
2023-08-29T15:00:57.662Z,0.90
2023-08-29T15:01:57.522Z,0.80
2023-08-29T15:02:57.691Z,0.90
2023-08-29T15:03:57.681Z,0.80
2023-08-29T15:04:57.493Z,0.90
2023-08-29T15:05:57.487Z,0.80
2023-08-29T15:06:57.463Z,0.70
2023-08-29T15:07:57.464Z,0.60
2023-08-29T15:08:57.430Z,0.80
2023-08-29T15:09:57.422Z,0.90
2023-08-29T15:10:57.422Z,0.80
2023-08-29T15:11:57.395Z,0.80
2023-08-29T15:12:57.393Z,0.80
2023-08-29T15:13:57.374Z,0.80
2023-08-29T15:14:57.365Z,0.70
2023-08-29T15:15:57.394Z,0.60
2023-08-29T15:16:57.332Z,0.70
2023-08-29T15:17:57.361Z,0.60
2023-08-29T15:18:57.303Z,0.60
2023-08-29T15:19:57.300Z,0.70
2023-08-29T15:20:57.283Z,0.80
2023-08-29T15:21:57.278Z,0.70
2023-08-29T15:22:57.255Z,0.60
2023-08-29T15:23:57.263Z,0.80
2023-08-29T15:24:57.241Z,0.70
2023-08-29T15:25:57.215Z,0.60
2023-08-29T15:26:57.199Z,0.80
2023-08-29T15:27:57.198Z,0.60
2023-08-29T15:28:57.184Z,0.80
2023-08-29T15:29:57.171Z,0.60
2023-08-29T15:30:57.149Z,0.60
2023-08-29T15:31:57.172Z,0.80
2023-08-29T15:32:57.162Z,0.60
2023-08-29T15:33:57.180Z,0.80
2023-08-29T15:34:57.108Z,0.50
2023-08-29T15:35:57.095Z,0.60
2023-08-29T15:36:57.064Z,0.60
2023-08-29T15:37:57.064Z,0.60
2023-08-29T15:38:57.057Z,0.60
2023-08-29T15:39:57.032Z,0.50
2023-08-29T15:40:57.017Z,0.80
2023-08-29T15:41:57.001Z,0.70
2023-08-29T15:42:57.000Z,0.60
2023-08-29T15:43:56.985Z,0.70
2023-08-29T15:44:56.975Z,0.70
2023-08-29T15:45:57.023Z,0.60
2023-08-29T15:46:56.936Z,0.60
2023-08-29T15:47:56.989Z,0.70
2023-08-29T15:48:56.920Z,0.60
2023-08-29T15:49:56.914Z,0.60
2023-08-29T15:50:56.914Z,0.60
2023-08-29T15:51:56.892Z,0.70
2023-08-29T15:52:56.913Z,0.70
2023-08-29T15:53:56.842Z,0.50
2023-08-29T15:54:56.862Z,0.70
2023-08-29T15:55:56.822Z,0.80
2023-08-29T15:56:56.842Z,0.70
2023-08-29T15:57:56.834Z,0.80
2023-08-29T15:58:56.780Z,0.70
2023-08-29T15:59:56.769Z,0.60
2023-08-29T16:00:56.756Z,0.60
2023-08-29T16:01:56.781Z,0.70
2023-08-29T16:02:56.844Z,0.70
2023-08-29T16:03:56.728Z,0.60
2023-08-29T16:04:56.731Z,0.80
2023-08-29T16:05:56.693Z,1.20
2023-08-29T16:06:56.705Z,0.70
2023-08-29T16:07:56.662Z,0.90
2023-08-29T16:08:58.550Z,0.60
2023-08-29T16:09:56.648Z,0.70
2023-08-29T16:10:56.650Z,0.70
2023-08-29T16:11:56.620Z,0.80
2023-08-29T16:12:56.624Z,0.70
2023-08-29T16:13:56.587Z,0.60
2023-08-29T16:14:56.572Z,0.60
2023-08-29T16:15:56.575Z,0.60
2023-08-29T16:16:56.582Z,0.80
2023-08-29T16:17:56.677Z,0.60
2023-08-29T16:18:56.546Z,0.60
2023-08-29T16:19:56.506Z,0.70
2023-08-29T16:20:56.508Z,0.50
2023-08-29T16:21:56.489Z,0.40
2023-08-29T16:22:56.482Z,0.60
2023-08-29T16:23:56.464Z,0.60
2023-08-29T16:24:56.459Z,0.60
2023-08-29T16:25:56.445Z,0.60
2023-08-29T16:26:56.426Z,0.60
2023-08-29T16:27:56.410Z,0.60
2023-08-29T16:28:56.397Z,0.70
2023-08-29T16:29:56.388Z,0.60
2023-08-29T16:30:56.391Z,0.70
2023-08-29T16:31:56.353Z,0.60
2023-08-29T16:32:56.393Z,0.70
2023-08-29T16:33:56.339Z,0.60
2023-08-29T16:34:56.326Z,0.60
2023-08-29T16:35:56.298Z,0.60
2023-08-29T16:36:56.299Z,0.70
2023-08-29T16:37:56.294Z,0.50
2023-08-29T16:38:56.276Z,0.70
2023-08-29T16:39:56.262Z,0.60
2023-08-29T16:40:56.250Z,0.60
2023-08-29T16:41:56.227Z,0.40
2023-08-29T16:42:56.215Z,0.70
2023-08-29T16:43:56.214Z,0.70
2023-08-29T16:44:56.217Z,0.50
2023-08-29T16:45:56.184Z,0.60
2023-08-29T16:46:56.229Z,0.50
2023-08-29T16:47:56.187Z,0.50
2023-08-29T16:48:56.158Z,0.50
2023-08-29T16:49:56.130Z,0.60
2023-08-29T16:50:56.119Z,0.50
2023-08-29T16:51:57.673Z,0.50
2023-08-29T16:52:56.088Z,0.60
2023-08-29T16:53:56.091Z,0.60
2023-08-29T16:54:56.099Z,0.60
2023-08-29T16:55:56.059Z,0.40
2023-08-29T16:56:56.037Z,0.60
2023-08-29T16:57:57.897Z,0.50
2023-08-29T16:58:56.023Z,0.50
2023-08-29T16:59:55.989Z,0.60
2023-08-29T17:00:56.022Z,0.50
2023-08-29T17:01:55.966Z,0.50
2023-08-29T17:03:03.059Z,0.60
2023-08-29T17:03:56.127Z,0.60
2023-08-29T17:04:55.934Z,0.60
2023-08-29T17:05:55.919Z,0.60
2023-08-29T17:06:55.903Z,0.60
2023-08-29T17:07:55.906Z,0.60
2023-08-29T17:08:55.881Z,0.60
2023-08-29T17:09:55.880Z,0.60
2023-08-29T17:10:55.846Z,0.50
2023-08-29T17:11:55.860Z,0.50
2023-08-29T17:12:55.836Z,0.50
2023-08-29T17:13:55.836Z,0.50
2023-08-29T17:14:55.835Z,0.50
2023-08-29T17:15:55.828Z,0.70
2023-08-29T17:16:55.785Z,0.80
2023-08-29T17:17:55.860Z,0.70
2023-08-29T17:18:55.752Z,0.60
2023-08-29T17:19:55.745Z,0.70
2023-08-29T17:20:55.716Z,0.60
2023-08-29T17:21:55.720Z,0.70
2023-08-29T17:22:55.686Z,0.60
2023-08-29T17:23:55.683Z,0.60
2023-08-29T17:24:55.669Z,0.70
2023-08-29T17:25:55.693Z,0.60
2023-08-29T17:26:55.654Z,0.70
2023-08-29T17:27:55.654Z,0.70
2023-08-29T17:28:55.626Z,0.70
2023-08-29T17:29:55.612Z,0.70
2023-08-29T17:30:55.596Z,0.80
2023-08-29T17:31:55.597Z,0.60
2023-08-29T17:32:55.632Z,0.60
2023-08-29T17:33:55.559Z,0.80
2023-08-29T17:34:55.535Z,0.60
2023-08-29T17:35:55.546Z,0.60
2023-08-29T17:36:55.503Z,0.70
2023-08-29T17:37:55.521Z,0.70
2023-08-29T17:38:55.477Z,0.60
2023-08-29T17:39:55.492Z,0.60
2023-08-29T17:40:55.472Z,0.60
2023-08-29T17:41:55.447Z,0.70
2023-08-29T17:42:55.440Z,0.80
2023-08-29T17:43:55.426Z,0.70
2023-08-29T17:44:55.403Z,0.70
2023-08-29T17:45:55.409Z,1.10
2023-08-29T17:46:55.392Z,0.70
2023-08-29T17:47:55.430Z,0.70
2023-08-29T17:48:55.343Z,0.80
2023-08-29T17:49:55.345Z,0.70
2023-08-29T17:50:55.322Z,0.70
2023-08-29T17:51:55.310Z,0.80
2023-08-29T17:52:55.304Z,0.60
2023-08-29T17:53:55.291Z,0.70
2023-08-29T17:54:55.279Z,0.70
2023-08-29T17:55:55.263Z,0.70
2023-08-29T17:56:55.247Z,0.70
2023-08-29T17:57:55.228Z,0.70
2023-08-29T17:58:55.231Z,1.10
2023-08-29T17:59:55.290Z,0.70
2023-08-29T18:00:55.196Z,0.60
2023-08-29T18:01:55.270Z,0.70
2023-08-29T18:02:55.256Z,0.80
2023-08-29T18:03:55.185Z,0.80
2023-08-29T18:04:55.137Z,0.70
2023-08-29T18:05:56.689Z,0.80
2023-08-29T18:06:56.109Z,0.70
2023-08-29T18:07:55.106Z,0.70
2023-08-29T18:08:55.190Z,0.80
2023-08-29T18:09:55.068Z,0.80
2023-08-29T18:10:55.062Z,0.80
2023-08-29T18:11:55.059Z,0.80
2023-08-29T18:12:55.054Z,0.80
2023-08-29T18:13:55.036Z,0.80
2023-08-29T18:14:55.008Z,0.80
2023-08-29T18:15:55.038Z,0.90
2023-08-29T18:16:55.058Z,0.90
2023-08-29T18:17:55.048Z,0.90
2023-08-29T18:18:54.951Z,0.80
2023-08-29T18:19:54.938Z,0.90
2023-08-29T18:20:54.958Z,1.00
2023-08-29T18:21:54.933Z,0.90
2023-08-29T18:22:54.919Z,0.80
2023-08-29T18:23:54.894Z,0.90
2023-08-29T18:24:54.882Z,1.00
2023-08-29T18:25:54.860Z,0.90
2023-08-29T18:26:54.893Z,0.80
2023-08-29T18:27:54.871Z,0.70
2023-08-29T18:28:54.828Z,0.90
2023-08-29T18:29:54.811Z,0.90
2023-08-29T18:30:54.793Z,0.80
2023-08-29T18:31:54.836Z,0.90
2023-08-29T18:32:54.777Z,0.70
2023-08-29T18:33:54.750Z,0.90
2023-08-29T18:34:54.737Z,0.90
2023-08-29T18:35:54.732Z,0.80
2023-08-29T18:36:54.735Z,0.70
2023-08-29T18:37:54.711Z,0.80
2023-08-29T18:38:54.680Z,0.90
2023-08-29T18:39:54.682Z,0.60
2023-08-29T18:40:54.658Z,0.80
2023-08-29T18:41:54.658Z,0.60
2023-08-29T18:42:54.631Z,0.70
2023-08-29T18:43:54.641Z,0.70
2023-08-29T18:44:54.621Z,0.80
2023-08-29T18:45:54.742Z,0.80
2023-08-29T18:46:54.594Z,0.70
2023-08-29T18:47:54.603Z,0.70
2023-08-29T18:48:54.556Z,1.00
2023-08-29T18:49:54.551Z,0.70
2023-08-29T18:50:54.540Z,0.80
2023-08-29T18:51:54.519Z,0.80
2023-08-29T18:52:54.499Z,0.80
2023-08-29T18:53:54.515Z,0.80
2023-08-29T18:54:54.470Z,0.80
2023-08-29T18:55:54.481Z,0.80
2023-08-29T18:56:54.469Z,0.70
2023-08-29T18:57:54.435Z,0.90
2023-08-29T18:58:54.421Z,1.00
2023-08-29T18:59:54.421Z,0.80
2023-08-29T19:00:54.402Z,0.90
2023-08-29T19:01:54.390Z,0.90
2023-08-29T19:02:54.407Z,1.60
2023-08-29T19:03:54.361Z,1.00
2023-08-29T19:04:54.358Z,0.70
2023-08-29T19:05:54.349Z,0.80
2023-08-29T19:06:54.312Z,0.90
2023-08-29T19:07:54.303Z,0.90
2023-08-29T19:08:54.313Z,0.90
2023-08-29T19:09:54.296Z,1.00
2023-08-29T19:10:54.264Z,0.90
2023-08-29T19:11:54.246Z,0.90
2023-08-29T19:12:54.239Z,0.90
2023-08-29T19:13:54.235Z,0.80
2023-08-29T19:14:54.224Z,0.80
2023-08-29T19:15:54.217Z,1.10
2023-08-29T19:16:54.196Z,0.90
2023-08-29T19:17:54.214Z,1.00
2023-08-29T19:18:54.204Z,0.90
2023-08-29T19:19:54.156Z,1.10
2023-08-29T19:20:54.125Z,0.90
2023-08-29T19:21:54.119Z,0.80
2023-08-29T19:22:54.149Z,0.90
2023-08-29T19:23:54.599Z,1.00
2023-08-29T19:24:54.097Z,1.10
2023-08-29T19:25:54.065Z,0.90
2023-08-29T19:26:54.056Z,1.20
2023-08-29T19:27:54.044Z,0.80
2023-08-29T19:28:54.057Z,0.90
2023-08-29T19:29:54.011Z,0.90
2023-08-29T19:30:53.989Z,1.30
2023-08-29T19:31:53.989Z,0.90
2023-08-29T19:32:54.489Z,1.10
2023-08-29T19:33:53.960Z,0.80
2023-08-29T19:34:53.951Z,1.10
2023-08-29T19:35:53.935Z,1.20
2023-08-29T19:36:53.904Z,1.10
2023-08-29T19:37:53.922Z,1.50
2023-08-29T19:38:59.050Z,1.60
2023-08-29T19:39:54.869Z,1.60
2023-08-29T19:40:53.857Z,1.40
2023-08-29T19:41:53.887Z,1.40
2023-08-29T19:42:53.855Z,1.40
2023-08-29T19:43:53.828Z,1.60
2023-08-29T19:44:53.801Z,1.30
2023-08-29T19:45:53.795Z,1.30
2023-08-29T19:46:53.817Z,1.30
2023-08-29T19:47:53.810Z,1.50
2023-08-29T19:48:53.742Z,1.30
2023-08-29T19:49:53.737Z,1.40
2023-08-29T19:50:53.724Z,1.30
2023-08-29T19:51:53.723Z,1.40
2023-08-29T19:52:53.697Z,1.30
2023-08-29T19:53:53.693Z,1.40
2023-08-29T19:54:53.768Z,1.40
2023-08-29T19:55:53.677Z,1.50
2023-08-29T19:56:53.663Z,1.30
2023-08-29T19:57:53.624Z,1.20
2023-08-29T19:58:53.637Z,1.50
2023-08-29T19:59:53.605Z,1.30
2023-08-29T20:00:53.614Z,1.70
2023-08-29T20:01:53.608Z,1.30
2023-08-29T20:02:53.572Z,1.20
2023-08-29T20:03:53.559Z,1.50
2023-08-29T20:04:53.542Z,1.30
2023-08-29T20:05:53.542Z,1.40
2023-08-29T20:06:53.495Z,1.30
2023-08-29T20:07:53.886Z,1.30
2023-08-29T20:08:53.473Z,1.30
2023-08-29T20:09:53.488Z,1.30
2023-08-29T20:10:53.469Z,1.20
2023-08-29T20:11:53.437Z,1.30
2023-08-29T20:12:53.431Z,1.50
2023-08-29T20:13:53.426Z,1.30
2023-08-29T20:14:53.425Z,1.20
2023-08-29T20:15:53.384Z,1.40
2023-08-29T20:16:53.780Z,1.30
2023-08-29T20:17:53.400Z,1.50
2023-08-29T20:18:53.341Z,1.50
2023-08-29T20:19:53.365Z,1.50
2023-08-29T20:20:53.331Z,1.50
2023-08-29T20:21:53.306Z,1.40
2023-08-29T20:22:53.285Z,1.60
2023-08-29T20:24:02.007Z,1.20
2023-08-29T20:24:54.268Z,1.30
2023-08-29T20:25:53.252Z,1.70
2023-08-29T20:26:53.232Z,1.10
2023-08-29T20:27:53.241Z,1.10
2023-08-29T20:28:53.212Z,1.30
2023-08-29T20:29:53.212Z,1.40
2023-08-29T20:30:53.217Z,1.40
2023-08-29T20:31:53.177Z,1.40
2023-08-29T20:32:53.216Z,1.30
2023-08-29T20:33:53.161Z,1.50
2023-08-29T20:34:53.151Z,1.30
2023-08-29T20:35:53.114Z,1.50
2023-08-29T20:36:53.117Z,1.60
2023-08-29T20:37:53.083Z,1.50
2023-08-29T20:38:53.084Z,1.40
2023-08-29T20:39:53.068Z,1.40
2023-08-29T20:40:53.044Z,1.40
2023-08-29T20:41:53.039Z,1.60
2023-08-29T20:42:53.075Z,1.60
2023-08-29T20:43:53.023Z,1.70
2023-08-29T20:44:52.992Z,1.50
2023-08-29T20:45:52.988Z,1.60
2023-08-29T20:46:52.971Z,1.30
2023-08-29T20:47:52.980Z,1.40
2023-08-29T20:48:52.990Z,1.50
2023-08-29T20:49:52.921Z,1.50
2023-08-29T20:50:52.906Z,1.90
2023-08-29T20:51:52.893Z,1.70
2023-08-29T20:52:52.894Z,1.70
2023-08-29T20:53:52.880Z,1.70
2023-08-29T20:54:52.857Z,1.60
2023-08-29T20:55:52.844Z,1.40
2023-08-29T20:56:52.823Z,1.40
2023-08-29T20:57:52.826Z,1.60
2023-08-29T20:58:52.812Z,1.60
2023-08-29T20:59:52.791Z,1.80
